createdAt,value
2023-03-05T00:01:40.620Z,100891.73
2023-03-05T00:04:13.586Z,100878.21
2023-03-05T00:06:42.310Z,100889.02
2023-03-05T00:09:10.784Z,100888.59
2023-03-05T00:11:39.861Z,100879.00
2023-03-05T00:14:08.169Z,100882.67
2023-03-05T00:16:36.496Z,100876.66
2023-03-05T00:19:05.569Z,100878.20
2023-03-05T00:21:39.897Z,100882.05
2023-03-05T00:24:17.354Z,100874.44
2023-03-05T00:26:46.420Z,100871.17
2023-03-05T00:29:18.608Z,100861.64
2023-03-05T00:31:46.859Z,100854.20
2023-03-05T00:34:17.168Z,100856.05
2023-03-05T00:36:48.527Z,100848.66
2023-03-05T00:39:17.985Z,100848.80
2023-03-05T00:41:46.587Z,100840.23
2023-03-05T00:44:14.776Z,100833.61
2023-03-05T00:46:42.906Z,100832.54
2023-03-05T00:49:11.150Z,100828.88
2023-03-05T00:51:39.448Z,100827.52
2023-03-05T00:54:07.845Z,100823.54
2023-03-05T00:56:36.259Z,100825.70
2023-03-05T00:59:04.496Z,100825.45
2023-03-05T01:01:32.686Z,100825.13
2023-03-05T01:04:01.424Z,100821.17
2023-03-05T01:06:29.849Z,100820.69
2023-03-05T01:08:59.422Z,100816.79
2023-03-05T01:11:27.728Z,100797.83
2023-03-05T01:13:56.064Z,100809.80
2023-03-05T01:16:24.328Z,100807.17
2023-03-05T01:18:52.535Z,100808.05
2023-03-05T01:21:22.148Z,100807.47
2023-03-05T01:23:50.513Z,100806.41
2023-03-05T01:26:18.691Z,100801.71
2023-03-05T01:28:47.337Z,100799.64
2023-03-05T01:31:15.840Z,100801.70
2023-03-05T01:33:44.982Z,100784.03
2023-03-05T01:36:16.990Z,100799.76
2023-03-05T01:38:48.057Z,100796.36
2023-03-05T01:41:17.243Z,100796.05
2023-03-05T01:43:47.958Z,100795.54
2023-03-05T01:46:16.964Z,100799.86
2023-03-05T01:48:51.430Z,100802.61
2023-03-05T01:51:22.779Z,100801.31
2023-03-05T01:53:51.283Z,100797.98
2023-03-05T01:56:20.229Z,100795.90
2023-03-05T01:58:50.138Z,100793.21
2023-03-05T02:01:19.444Z,100788.02
2023-03-05T02:03:48.645Z,100766.75
2023-03-05T02:06:17.764Z,100769.39
2023-03-05T02:08:46.320Z,100779.17
2023-03-05T02:11:15.081Z,100777.14
2023-03-05T02:13:43.558Z,100767.73
2023-03-05T02:16:11.731Z,100763.17
2023-03-05T02:18:39.988Z,100765.84
2023-03-05T02:21:10.144Z,100748.86
2023-03-05T02:23:39.530Z,100772.88
2023-03-05T02:26:10.816Z,100765.98
2023-03-05T02:28:43.093Z,100746.99
2023-03-05T02:31:15.740Z,100762.61
2023-03-05T02:33:43.937Z,100748.38
2023-03-05T02:36:13.203Z,100747.72
2023-03-05T02:38:42.897Z,100741.06
2023-03-05T02:41:11.670Z,100733.54
2023-03-05T02:43:40.605Z,100738.11
2023-03-05T02:46:09.291Z,100734.20
2023-03-05T02:48:37.590Z,100731.45
2023-03-05T02:51:07.396Z,100723.63
2023-03-05T02:53:35.869Z,100702.00
2023-03-05T02:56:04.694Z,100715.44
2023-03-05T02:58:35.420Z,100701.95
2023-03-05T03:01:03.888Z,100720.77
2023-03-05T03:03:32.504Z,100719.17
2023-03-05T03:06:00.760Z,100721.08
2023-03-05T03:08:29.018Z,100719.75
2023-03-05T03:10:57.266Z,100712.16
2023-03-05T03:13:25.732Z,100710.84
2023-03-05T03:16:03.696Z,100707.99
2023-03-05T03:18:31.931Z,100703.63
2023-03-05T03:21:00.183Z,100704.98
2023-03-05T03:23:28.547Z,100687.84
2023-03-05T03:25:57.144Z,100699.63
2023-03-05T03:28:25.503Z,100697.86
2023-03-05T03:30:53.679Z,100693.62
2023-03-05T03:33:22.540Z,100686.55
2023-03-05T03:35:50.885Z,100689.36
2023-03-05T03:38:19.294Z,100683.36
2023-03-05T03:40:47.606Z,100678.59
2023-03-05T03:43:15.849Z,100675.81
2023-03-05T03:45:44.664Z,100671.39
2023-03-05T03:48:12.832Z,100667.83
2023-03-05T03:50:42.083Z,100665.70
2023-03-05T03:53:14.909Z,100660.60
2023-03-05T03:55:46.578Z,100655.58
2023-03-05T03:58:15.038Z,100654.67
2023-03-05T04:00:43.250Z,100650.91
2023-03-05T04:03:11.448Z,100647.86
2023-03-05T04:05:39.573Z,100648.45
2023-03-05T04:08:12.161Z,100642.56
2023-03-05T04:10:40.416Z,100640.52
2023-03-05T04:13:08.691Z,100635.24
2023-03-05T04:15:37.051Z,100635.33
2023-03-05T04:18:05.332Z,100632.37
2023-03-05T04:20:33.801Z,100629.05
2023-03-05T04:23:02.016Z,100632.06
2023-03-05T04:25:30.304Z,100622.99
2023-03-05T04:27:58.453Z,100620.91
2023-03-05T04:30:26.648Z,100627.14
2023-03-05T04:32:54.852Z,100625.98
2023-03-05T04:35:23.330Z,100633.90
2023-03-05T04:37:51.560Z,100629.98
2023-03-05T04:40:20.076Z,100636.77
2023-03-05T04:42:48.305Z,100630.29
2023-03-05T04:45:17.410Z,100634.02
2023-03-05T04:47:45.779Z,100632.02
2023-03-05T04:50:14.790Z,100629.66
2023-03-05T04:52:44.547Z,100625.05
2023-03-05T04:55:13.739Z,100620.36
2023-03-05T04:57:42.431Z,100603.17
2023-03-05T05:00:14.509Z,100593.19
2023-03-05T05:02:49.156Z,100588.36
2023-03-05T05:05:20.692Z,100582.90
2023-03-05T05:07:49.074Z,100575.83
2023-03-05T05:10:17.372Z,100575.20
2023-03-05T05:12:45.877Z,100571.60
2023-03-05T05:15:14.247Z,100577.48
2023-03-05T05:17:42.628Z,100577.93
2023-03-05T05:20:12.537Z,100581.13
2023-03-05T05:22:41.203Z,100587.72
2023-03-05T05:25:10.837Z,100597.63
2023-03-05T05:27:40.754Z,100605.95
2023-03-05T05:30:09.929Z,100604.52
2023-03-05T05:32:38.086Z,100587.51
2023-03-05T05:35:06.862Z,100606.14
2023-03-05T05:37:35.009Z,100607.27
2023-03-05T05:40:05.817Z,100601.67
2023-03-05T05:42:34.558Z,100597.70
2023-03-05T05:45:03.319Z,100595.85
2023-03-05T05:47:31.663Z,100596.35
2023-03-05T05:49:59.808Z,100592.15
2023-03-05T05:52:28.034Z,100591.39
2023-03-05T05:54:56.958Z,100576.77
2023-03-05T05:57:25.250Z,100591.15
2023-03-05T05:59:53.467Z,100588.79
2023-03-05T06:02:21.743Z,100590.42
2023-03-05T06:04:50.023Z,100586.92
2023-03-05T06:07:18.245Z,100586.81
2023-03-05T06:09:46.600Z,100584.95
2023-03-05T06:12:14.848Z,100585.06
2023-03-05T06:14:43.222Z,100586.09
2023-03-05T06:17:14.848Z,100583.40
2023-03-05T06:19:45.737Z,100584.94
2023-03-05T06:22:14.057Z,100580.54
2023-03-05T06:24:43.871Z,100581.08
2023-03-05T06:27:12.152Z,100575.19
2023-03-05T06:29:40.317Z,100577.52
2023-03-05T06:32:08.701Z,100573.61
2023-03-05T06:34:36.837Z,100577.53
2023-03-05T06:37:05.053Z,100576.54
2023-03-05T06:39:35.398Z,100574.83
2023-03-05T06:42:04.557Z,100577.92
2023-03-05T06:44:33.185Z,100578.76
2023-03-05T06:47:01.633Z,100577.05
2023-03-05T06:49:30.031Z,100575.17
2023-03-05T06:51:58.270Z,100575.40
2023-03-05T06:54:26.496Z,100569.27
2023-03-05T06:56:54.790Z,100564.46
2023-03-05T06:59:23.411Z,100566.44
2023-03-05T07:01:51.573Z,100568.62
2023-03-05T07:04:19.801Z,100567.02
2023-03-05T07:06:47.996Z,100568.13
2023-03-05T07:09:16.800Z,100567.38
2023-03-05T07:11:45.482Z,100561.73
2023-03-05T07:14:13.796Z,100556.63
2023-03-05T07:16:42.130Z,100539.13
2023-03-05T07:19:11.099Z,100557.76
2023-03-05T07:21:40.113Z,100557.23
2023-03-05T07:24:09.077Z,100556.65
2023-03-05T07:26:37.335Z,100550.84
2023-03-05T07:29:05.707Z,100555.45
2023-03-05T07:31:34.337Z,100555.83
2023-03-05T07:34:03.956Z,100548.27
2023-03-05T07:36:32.233Z,100546.84
2023-03-05T07:39:00.928Z,100543.51
2023-03-05T07:41:29.188Z,100544.89
2023-03-05T07:43:57.369Z,100532.52
2023-03-05T07:46:29.154Z,100539.66
2023-03-05T07:48:57.546Z,100538.77
2023-03-05T07:51:27.611Z,100533.25
2023-03-05T07:53:57.596Z,100516.02
2023-03-05T07:56:32.194Z,100532.70
2023-03-05T07:59:02.765Z,100529.63
2023-03-05T08:01:32.072Z,100525.59
2023-03-05T08:04:00.512Z,100517.96
2023-03-05T08:06:28.768Z,100522.10
2023-03-05T08:08:58.729Z,100521.48
2023-03-05T08:11:28.698Z,100502.63
2023-03-05T08:13:59.597Z,100517.29
2023-03-05T08:16:28.190Z,100515.38
2023-03-05T08:18:58.174Z,100518.77
2023-03-05T08:21:33.901Z,100517.94
2023-03-05T08:24:05.470Z,100516.73
2023-03-05T08:26:37.842Z,100519.04
2023-03-05T08:29:09.977Z,100517.74
2023-03-05T08:31:38.952Z,100512.39
2023-03-05T08:34:07.331Z,100513.61
2023-03-05T08:36:35.657Z,100508.90
2023-03-05T08:39:06.927Z,100495.24
2023-03-05T08:41:35.333Z,100505.58
2023-03-05T08:44:04.020Z,100501.14
2023-03-05T08:46:32.638Z,100496.80
2023-03-05T08:49:00.902Z,100501.02
2023-03-05T08:51:29.362Z,100499.33
2023-03-05T08:54:00.152Z,100486.17
2023-03-05T08:56:31.234Z,100500.73
2023-03-05T08:58:59.368Z,100501.69
2023-03-05T09:01:28.009Z,100502.58
2023-03-05T09:03:56.403Z,100495.16
2023-03-05T09:06:25.173Z,100495.45
2023-03-05T09:08:54.069Z,100500.48
2023-03-05T09:11:22.421Z,100498.38
2023-03-05T09:13:50.600Z,100494.45
2023-03-05T09:16:20.253Z,100491.17
2023-03-05T09:18:48.609Z,100488.10
2023-03-05T09:21:18.471Z,100482.58
2023-03-05T09:23:49.723Z,100490.04
2023-03-05T09:26:20.477Z,100490.35
2023-03-05T09:28:48.797Z,100498.88
2023-03-05T09:31:18.370Z,100493.21
2023-03-05T09:33:48.416Z,100484.77
2023-03-05T09:36:28.724Z,100478.47
2023-03-05T09:38:57.540Z,100476.84
2023-03-05T09:41:47.449Z,100475.70
2023-03-05T09:44:44.953Z,100483.27
2023-03-05T09:47:36.101Z,100485.58
2023-03-05T09:50:36.649Z,100490.87
2023-03-05T09:53:17.972Z,100485.20
2023-03-05T09:55:51.051Z,100490.30
2023-03-05T09:58:37.607Z,100490.92
2023-03-05T10:01:32.400Z,100489.20
2023-03-05T10:04:04.727Z,100475.39
2023-03-05T10:06:37.082Z,100487.88
2023-03-05T10:09:16.051Z,100488.23
2023-03-05T10:11:47.519Z,100487.34
2023-03-05T10:14:29.178Z,100483.80
2023-03-05T10:17:05.981Z,100483.61
2023-03-05T10:19:39.853Z,100486.37
2023-03-05T10:22:13.948Z,100482.98
2023-03-05T10:25:15.917Z,100480.58
2023-03-05T10:27:54.341Z,100478.70
2023-03-05T10:30:55.353Z,100476.80
2023-03-05T10:33:46.593Z,100478.57
2023-03-05T10:36:51.165Z,100478.69
2023-03-05T10:39:42.598Z,100481.81
2023-03-05T10:42:16.705Z,100477.98
2023-03-05T10:44:49.163Z,100473.70
2023-03-05T10:47:30.276Z,100473.14
2023-03-05T10:49:59.444Z,100465.11
2023-03-05T10:52:38.576Z,100457.14
2023-03-05T10:55:16.867Z,100459.88
2023-03-05T10:57:45.470Z,100458.93
2023-03-05T11:00:18.374Z,100461.19
2023-03-05T11:03:15.779Z,100464.25
2023-03-05T11:06:01.956Z,100462.62
2023-03-05T11:08:30.159Z,100464.87
2023-03-05T11:11:10.276Z,100463.35
2023-03-05T11:13:53.081Z,100466.17
2023-03-05T11:16:26.161Z,100466.96
2023-03-05T11:19:15.441Z,100468.01
2023-03-05T11:21:45.400Z,100464.11
2023-03-05T11:24:19.328Z,100459.97
2023-03-05T11:26:52.450Z,100453.55
2023-03-05T11:29:25.261Z,100445.96
2023-03-05T11:31:54.353Z,100445.79
2023-03-05T11:34:30.414Z,100449.98
2023-03-05T11:36:58.654Z,100430.19
2023-03-05T11:39:30.589Z,100442.39
2023-03-05T11:41:58.707Z,100441.56
2023-03-05T11:44:35.619Z,100438.81
2023-03-05T11:47:16.952Z,100428.64
2023-03-05T11:49:48.897Z,100425.25
2023-03-05T11:52:34.214Z,100437.17
2023-03-05T11:56:01.268Z,100436.66
2023-03-05T11:59:02.372Z,100441.93
2023-03-05T12:01:40.446Z,100439.29
2023-03-05T12:04:08.913Z,100442.15
2023-03-05T12:06:42.927Z,100438.35
2023-03-05T12:09:23.937Z,100439.05
2023-03-05T12:11:59.084Z,100434.79
2023-03-05T12:14:45.487Z,100432.48
2023-03-05T12:17:44.597Z,100432.41
2023-03-05T12:20:21.192Z,100428.77
2023-03-05T12:22:50.736Z,100432.95
2023-03-05T12:25:35.441Z,100437.58
2023-03-05T12:28:03.712Z,100442.02
2023-03-05T12:30:35.010Z,100440.22
2023-03-05T12:33:06.148Z,100435.23
2023-03-05T12:35:40.814Z,100427.33
2023-03-05T12:38:29.631Z,100426.27
2023-03-05T12:41:22.913Z,100425.08
2023-03-05T12:44:06.613Z,100414.30
2023-03-05T12:46:46.334Z,100416.45
2023-03-05T12:49:20.538Z,100417.96
2023-03-05T12:51:51.892Z,100412.98
2023-03-05T12:54:36.128Z,100408.73
2023-03-05T12:57:15.732Z,100413.27
2023-03-05T12:59:50.393Z,100411.96
2023-03-05T13:02:34.594Z,100413.48
2023-03-05T13:05:19.871Z,100412.72
2023-03-05T13:07:49.496Z,100413.45
2023-03-05T13:10:35.980Z,100412.14
2023-03-05T13:13:04.266Z,100409.06
2023-03-05T13:15:33.002Z,100407.88
2023-03-05T13:18:08.677Z,100404.29
2023-03-05T13:20:40.649Z,100401.19
2023-03-05T13:23:20.887Z,100398.18
2023-03-05T13:26:01.785Z,100398.69
2023-03-05T13:28:31.801Z,100397.52
2023-03-05T13:31:12.703Z,100408.16
2023-03-05T13:33:41.238Z,100406.91
2023-03-05T13:36:16.411Z,100410.39
2023-03-05T13:38:47.055Z,100412.80
2023-03-05T13:41:15.155Z,100411.19
2023-03-05T13:43:45.927Z,100403.42
2023-03-05T13:46:14.152Z,100400.83
2023-03-05T13:48:42.401Z,100397.80
2023-03-05T13:51:14.786Z,100398.61
2023-03-05T13:53:43.716Z,100389.49
2023-03-05T13:56:17.877Z,100389.66
2023-03-05T13:58:57.380Z,100389.02
2023-03-05T14:01:26.013Z,100384.19
2023-03-05T14:03:57.466Z,100383.73
2023-03-05T14:06:29.333Z,100379.06
2023-03-05T14:09:06.122Z,100377.83
2023-03-05T14:11:36.004Z,100379.59
2023-03-05T14:14:16.609Z,100374.04
2023-03-05T14:16:46.564Z,100367.77
2023-03-05T14:19:37.874Z,100369.30
2023-03-05T14:22:06.698Z,100365.28
2023-03-05T14:24:34.918Z,100365.48
2023-03-05T14:27:13.486Z,100365.49
2023-03-05T14:29:46.700Z,100360.85
2023-03-05T14:32:31.865Z,100344.58
2023-03-05T14:35:02.692Z,100354.55
2023-03-05T14:37:34.445Z,100358.04
2023-03-05T14:40:07.971Z,100358.71
2023-03-05T14:42:39.512Z,100358.03
2023-03-05T14:45:15.020Z,100354.83
2023-03-05T14:47:43.982Z,100356.91
2023-03-05T14:50:24.524Z,100353.84
2023-03-05T14:52:59.194Z,100351.77
2023-03-05T14:55:32.037Z,100351.42
2023-03-05T14:58:13.472Z,100349.11
2023-03-05T15:00:43.102Z,100348.55
2023-03-05T15:03:17.042Z,100351.52
2023-03-05T15:05:51.176Z,100344.65
2023-03-05T15:08:28.614Z,100344.94
2023-03-05T15:10:57.212Z,100348.63
2023-03-05T15:13:26.536Z,100348.36
2023-03-05T15:15:55.522Z,100347.17
2023-03-05T15:18:23.948Z,100350.66
2023-03-05T15:20:53.284Z,100357.05
2023-03-05T15:23:21.570Z,100355.00
2023-03-05T15:25:50.238Z,100353.23
2023-03-05T15:28:18.755Z,100355.05
2023-03-05T15:30:48.120Z,100358.83
2023-03-05T15:33:17.852Z,100363.90
2023-03-05T15:35:46.431Z,100363.77
2023-03-05T15:38:16.315Z,100362.98
2023-03-05T15:40:45.178Z,100367.80
2023-03-05T15:43:14.072Z,100362.68
2023-03-05T15:45:42.418Z,100367.95
2023-03-05T15:48:10.970Z,100367.27
2023-03-05T15:50:42.813Z,100365.54
2023-03-05T15:53:16.361Z,100360.96
2023-03-05T15:55:46.052Z,100366.16
2023-03-05T15:58:16.964Z,100368.50
2023-03-05T16:00:47.534Z,100369.88
2023-03-05T16:03:16.019Z,100373.88
2023-03-05T16:05:44.578Z,100373.98
2023-03-05T16:08:13.104Z,100378.20
2023-03-05T16:10:41.573Z,100375.83
2023-03-05T16:13:14.029Z,100377.63
2023-03-05T16:15:43.465Z,100377.50
2023-03-05T16:18:16.506Z,100381.55
2023-03-05T16:20:45.532Z,100382.15
2023-03-05T16:23:14.178Z,100369.39
2023-03-05T16:25:42.437Z,100387.30
2023-03-05T16:28:10.991Z,100388.17
2023-03-05T16:30:40.224Z,100389.23
2023-03-05T16:33:08.564Z,100387.83
2023-03-05T16:35:36.916Z,100391.11
2023-03-05T16:38:05.187Z,100390.55
2023-03-05T16:41:02.901Z,100389.86
2023-03-05T16:43:26.807Z,100377.66
2023-03-05T16:45:55.001Z,100391.79
2023-03-05T16:48:23.324Z,100392.92
2023-03-05T16:50:51.547Z,100382.52
2023-03-05T16:53:20.400Z,100396.81
2023-03-05T16:55:48.754Z,100395.51
2023-03-05T16:58:16.977Z,100399.05
2023-03-05T17:00:49.026Z,100399.16
2023-03-05T17:03:17.350Z,100400.39
2023-03-05T17:05:45.702Z,100390.84
2023-03-05T17:08:14.473Z,100402.90
2023-03-05T17:10:44.346Z,100388.90
2023-03-05T17:13:12.677Z,100387.02
2023-03-05T17:15:40.865Z,100401.01
2023-03-05T17:18:10.225Z,100383.54
2023-03-05T17:20:38.531Z,100401.31
2023-03-05T17:23:06.815Z,100403.17
2023-03-05T17:25:37.210Z,100403.32
2023-03-05T17:28:05.795Z,100405.47
2023-03-05T17:30:36.657Z,100402.73
2023-03-05T17:33:06.136Z,100402.76
2023-03-05T17:35:35.565Z,100403.61
2023-03-05T17:38:11.019Z,100404.29
2023-03-05T17:40:39.216Z,100402.45
2023-03-05T17:43:07.467Z,100400.16
2023-03-05T17:45:36.498Z,100400.08
2023-03-05T17:48:04.981Z,100404.63
2023-03-05T17:50:33.198Z,100403.36
2023-03-05T17:53:01.605Z,100407.52
2023-03-05T17:55:30.138Z,100410.96
2023-03-05T17:57:58.569Z,100409.98
2023-03-05T18:00:29.815Z,100407.05
2023-03-05T18:02:59.488Z,100411.97
2023-03-05T18:05:28.256Z,100412.77
2023-03-05T18:07:56.711Z,100408.59
2023-03-05T18:10:27.140Z,100412.05
2023-03-05T18:12:55.697Z,100411.49
2023-03-05T18:15:25.586Z,100410.09
2023-03-05T18:17:54.111Z,100412.94
2023-03-05T18:20:49.469Z,100413.29
2023-03-05T18:23:18.822Z,100412.67
2023-03-05T18:25:47.636Z,100411.91
2023-03-05T18:28:16.709Z,100408.35
2023-03-05T18:30:46.311Z,100410.05
2023-03-05T18:33:21.172Z,100329.23
2023-03-05T18:35:52.496Z,100410.27
2023-03-05T18:38:23.253Z,100415.73
2023-03-05T18:40:53.337Z,100400.83
2023-03-05T18:43:23.809Z,100416.40
2023-03-05T18:45:54.278Z,100413.55
2023-03-05T18:48:23.189Z,100410.53
2023-03-05T18:50:53.461Z,100414.77
2023-03-05T18:53:22.981Z,100412.25
2023-03-05T18:55:52.410Z,100410.83
2023-03-05T18:58:20.691Z,100409.65
2023-03-05T19:00:49.043Z,100410.30
2023-03-05T19:03:20.595Z,100408.92
2023-03-05T19:05:51.381Z,100410.27
2023-03-05T19:08:20.233Z,100409.91
2023-03-05T19:10:48.829Z,100407.85
2023-03-05T19:13:40.028Z,100409.81
2023-03-05T19:16:08.465Z,100406.39
2023-03-05T19:18:44.001Z,100406.27
2023-03-05T19:21:12.306Z,100405.33
2023-03-05T19:23:40.409Z,100403.96
2023-03-05T19:26:09.569Z,100403.54
2023-03-05T19:28:37.773Z,100404.52
2023-03-05T19:31:06.015Z,100406.92
2023-03-05T19:33:34.470Z,100402.63
2023-03-05T19:36:02.849Z,100402.30
2023-03-05T19:38:31.082Z,100398.77
2023-03-05T19:40:59.329Z,100399.20
2023-03-05T19:43:27.562Z,100399.82
2023-03-05T19:46:07.774Z,100400.88
2023-03-05T19:48:38.310Z,100402.42
2023-03-05T19:51:15.182Z,100407.30
2023-03-05T19:53:44.151Z,100407.29
2023-03-05T19:56:15.769Z,100407.04
2023-03-05T19:58:46.075Z,100405.73
2023-03-05T20:01:26.175Z,100407.19
2023-03-05T20:03:56.611Z,100401.38
2023-03-05T20:06:26.608Z,100402.85
2023-03-05T20:08:56.090Z,100403.21
2023-03-05T20:11:25.488Z,100401.53
2023-03-05T20:13:54.063Z,100400.60
2023-03-05T20:16:30.389Z,100402.34
2023-03-05T20:18:59.633Z,100398.19
2023-03-05T20:21:30.850Z,100396.23
2023-03-05T20:24:02.452Z,100398.02
2023-03-05T20:26:33.069Z,100400.80
2023-03-05T20:29:02.638Z,100396.70
2023-03-05T20:31:35.377Z,100395.23
2023-03-05T20:34:06.738Z,100390.86
2023-03-05T20:36:35.136Z,100392.31
2023-03-05T20:39:05.745Z,100391.40
2023-03-05T20:41:36.264Z,100391.40
2023-03-05T20:44:05.529Z,100389.66
2023-03-05T20:46:39.585Z,100392.56
2023-03-05T20:49:08.960Z,100377.05
2023-03-05T20:51:39.455Z,100394.21
2023-03-05T20:54:11.261Z,100391.95
2023-03-05T20:56:39.721Z,100391.00
2023-03-05T20:59:09.137Z,100385.60
2023-03-05T21:01:39.961Z,100381.55
2023-03-05T21:04:09.053Z,100383.98
2023-03-05T21:06:37.876Z,100381.25
2023-03-05T21:09:06.379Z,100379.70
2023-03-05T21:11:35.941Z,100366.63
2023-03-05T21:14:04.204Z,100378.70
2023-03-05T21:16:32.502Z,100379.61
2023-03-05T21:19:00.907Z,100380.47
2023-03-05T21:21:30.400Z,100377.90
2023-03-05T21:23:58.680Z,100358.89
2023-03-05T21:26:27.241Z,100378.59
2023-03-05T21:28:55.555Z,100372.38
2023-03-05T21:31:23.968Z,100375.05
2023-03-05T21:33:52.518Z,100372.56
2023-03-05T21:36:21.294Z,100369.80
2023-03-05T21:38:50.268Z,100369.28
2023-03-05T21:41:20.611Z,100369.80
2023-03-05T21:43:48.959Z,100368.02
2023-03-05T21:46:17.310Z,100365.44
2023-03-05T21:48:45.633Z,100364.48
2023-03-05T21:51:13.934Z,100343.58
2023-03-05T21:53:42.098Z,100358.30
2023-03-05T21:56:24.198Z,100356.48
2023-03-05T21:58:53.680Z,100335.66
2023-03-05T22:01:22.133Z,100352.36
2023-03-05T22:03:50.811Z,100352.27
2023-03-05T22:06:20.107Z,100347.86
2023-03-05T22:08:48.724Z,100345.75
2023-03-05T22:11:18.759Z,100341.74
2023-03-05T22:13:47.028Z,100339.86
2023-03-05T22:16:26.700Z,100340.38
2023-03-05T22:18:55.881Z,100333.33
2023-03-05T22:21:27.086Z,100332.47
2023-03-05T22:23:57.376Z,100331.54
2023-03-05T22:26:32.934Z,100331.71
2023-03-05T22:29:01.681Z,100327.79
2023-03-05T22:31:30.640Z,100325.52
2023-03-05T22:33:58.841Z,100323.55
2023-03-05T22:36:27.061Z,100323.88
2023-03-05T22:38:55.217Z,100321.10
2023-03-05T22:41:23.534Z,100320.93
2023-03-05T22:43:52.785Z,100318.58
2023-03-05T22:46:24.782Z,100319.70
2023-03-05T22:48:53.769Z,100318.27
2023-03-05T22:51:22.057Z,100317.66
2023-03-05T22:53:50.215Z,100318.91
2023-03-05T22:56:20.183Z,100302.38
2023-03-05T22:58:48.670Z,100316.46
2023-03-05T23:01:22.685Z,100313.88
2023-03-05T23:03:55.641Z,100313.91
2023-03-05T23:06:23.892Z,100295.38
2023-03-05T23:08:53.094Z,100313.50
2023-03-05T23:11:21.665Z,100313.83
2023-03-05T23:13:49.943Z,100311.83
2023-03-05T23:16:18.216Z,100311.04
2023-03-05T23:18:46.443Z,100306.69
2023-03-05T23:21:14.684Z,100304.41
2023-03-05T23:23:42.874Z,100310.50
2023-03-05T23:26:11.316Z,100301.25
2023-03-05T23:28:39.613Z,100309.40
2023-03-05T23:31:08.224Z,100306.04
2023-03-05T23:33:36.401Z,100307.32
2023-03-05T23:36:04.956Z,100304.61
2023-03-05T23:38:33.817Z,100298.08
2023-03-05T23:41:03.832Z,100299.39
2023-03-05T23:43:32.273Z,100298.27
2023-03-05T23:46:01.946Z,100303.10
2023-03-05T23:48:31.276Z,100299.30
2023-03-05T23:50:59.564Z,100298.75
2023-03-05T23:53:31.386Z,100297.80
2023-03-05T23:55:59.835Z,100297.21
2023-03-05T23:58:28.305Z,100299.60
